createdAt,value
2023-03-02T00:02:02.367Z,99920.09
2023-03-02T00:04:40.340Z,99908.81
2023-03-02T00:07:17.489Z,99917.44
2023-03-02T00:09:45.289Z,99903.53
2023-03-02T00:12:17.049Z,99906.03
2023-03-02T00:14:45.616Z,99908.34
2023-03-02T00:17:18.361Z,99910.00
2023-03-02T00:19:45.583Z,99908.59
2023-03-02T00:22:21.358Z,99911.78
2023-03-02T00:24:51.050Z,99913.94
2023-03-02T00:27:21.809Z,99904.34
2023-03-02T00:29:49.595Z,99897.22
2023-03-02T00:32:21.543Z,99907.81
2023-03-02T00:34:48.249Z,99907.97
2023-03-02T00:37:17.394Z,99903.16
2023-03-02T00:39:46.548Z,99907.09
2023-03-02T00:42:20.719Z,99912.72
2023-03-02T00:44:48.705Z,99902.47
2023-03-02T00:47:17.461Z,99897.69
2023-03-02T00:49:50.309Z,99896.03
2023-03-02T00:52:17.739Z,99899.16
2023-03-02T00:54:44.744Z,99896.13
2023-03-02T00:57:16.380Z,99895.63
2023-03-02T00:59:47.071Z,99896.97
2023-03-02T01:02:31.882Z,99888.69
2023-03-02T01:04:58.703Z,99884.88
2023-03-02T01:07:28.276Z,99886.88
2023-03-02T01:09:56.325Z,99875.41
2023-03-02T01:12:30.129Z,99874.69
2023-03-02T01:14:57.329Z,99870.59
2023-03-02T01:17:25.272Z,99864.91
2023-03-02T01:19:52.573Z,99856.03
2023-03-02T01:22:25.847Z,99859.97
2023-03-02T01:24:55.113Z,99849.72
2023-03-02T01:27:22.257Z,99851.53
2023-03-02T01:29:51.985Z,99858.84
2023-03-02T01:32:18.778Z,99858.00
2023-03-02T01:34:48.512Z,99848.44
2023-03-02T01:37:17.745Z,99849.28
2023-03-02T01:39:55.072Z,99841.47
2023-03-02T01:42:21.741Z,99839.31
2023-03-02T01:44:52.396Z,99832.06
2023-03-02T01:47:29.296Z,99843.13
2023-03-02T01:50:23.106Z,99833.25
2023-03-02T01:52:54.924Z,99822.81
2023-03-02T01:55:26.573Z,99823.88
2023-03-02T01:57:54.931Z,99822.66
2023-03-02T02:00:29.280Z,99822.41
2023-03-02T02:03:09.035Z,99828.88
2023-03-02T02:05:40.707Z,99822.44
2023-03-02T02:08:07.867Z,99823.41
2023-03-02T02:10:38.321Z,99821.06
2023-03-02T02:13:09.055Z,99816.09
2023-03-02T02:15:38.982Z,99813.34
2023-03-02T02:18:18.436Z,99814.09
2023-03-02T02:20:48.883Z,99810.78
2023-03-02T02:23:31.197Z,99806.84
2023-03-02T02:26:08.877Z,99807.53
2023-03-02T02:29:16.148Z,99813.34
2023-03-02T02:32:15.909Z,99810.75
2023-03-02T02:34:48.196Z,99813.44
2023-03-02T02:37:22.270Z,99814.47
2023-03-02T02:39:52.772Z,99817.63
2023-03-02T02:42:32.278Z,99813.34
2023-03-02T02:45:04.513Z,99817.81
2023-03-02T02:47:38.311Z,99819.16
2023-03-02T02:50:18.556Z,99825.91
2023-03-02T02:52:48.634Z,99822.31
2023-03-02T02:55:22.201Z,99805.75
2023-03-02T02:57:53.580Z,99812.69
2023-03-02T03:00:22.798Z,99811.84
2023-03-02T03:02:54.601Z,99819.13
2023-03-02T03:05:23.940Z,99819.59
2023-03-02T03:07:55.877Z,99812.97
2023-03-02T03:10:31.962Z,99818.41
2023-03-02T03:13:04.014Z,99820.00
2023-03-02T03:15:32.444Z,99819.53
2023-03-02T03:17:59.467Z,99808.94
2023-03-02T03:20:28.502Z,99810.16
2023-03-02T03:22:55.474Z,99816.75
2023-03-02T03:28:06.710Z,99817.66
2023-03-02T03:30:34.509Z,99816.63
2023-03-02T03:33:01.530Z,99806.16
2023-03-02T03:35:28.585Z,99817.25
2023-03-02T03:38:03.772Z,99821.19
2023-03-02T03:43:16.384Z,99826.06
2023-03-02T03:45:51.662Z,99826.66
2023-03-02T03:48:19.538Z,99823.50
2023-03-02T03:50:53.789Z,99816.22
2023-03-02T03:53:27.687Z,99822.47
2023-03-02T03:55:59.662Z,99817.81
2023-03-02T03:58:28.930Z,99812.84
2023-03-02T04:00:57.788Z,99808.28
2023-03-02T04:03:27.803Z,99807.72
2023-03-02T04:05:59.717Z,99804.06
2023-03-02T04:08:26.453Z,99812.25
2023-03-02T04:10:53.738Z,99807.00
2023-03-02T04:13:21.986Z,99814.22
2023-03-02T04:15:55.492Z,99806.50
2023-03-02T04:18:22.639Z,99809.13
2023-03-02T04:20:49.331Z,99808.53
2023-03-02T04:23:18.469Z,99813.13
2023-03-02T04:25:45.976Z,99821.88
2023-03-02T04:28:22.377Z,99811.22
2023-03-02T04:31:09.567Z,99813.66
2023-03-02T04:33:36.671Z,99806.84
2023-03-02T04:36:08.585Z,99806.94
2023-03-02T04:38:48.045Z,99804.31
2023-03-02T04:41:22.130Z,99801.44
2023-03-02T04:43:49.303Z,99807.69
2023-03-02T04:46:20.606Z,99803.16
2023-03-02T04:48:49.575Z,99812.88
2023-03-02T04:51:24.196Z,99803.78
2023-03-02T04:53:56.171Z,99804.72
2023-03-02T04:56:22.941Z,99806.75
2023-03-02T04:58:49.964Z,99811.31
2023-03-02T05:01:17.800Z,99812.19
2023-03-02T05:03:48.201Z,99813.38
2023-03-02T05:06:14.957Z,99821.50
2023-03-02T05:08:44.741Z,99812.59
2023-03-02T05:11:22.160Z,99803.56
2023-03-02T05:14:19.966Z,99801.81
2023-03-02T05:16:49.882Z,99808.59
2023-03-02T05:19:19.057Z,99804.44
2023-03-02T05:21:45.975Z,99806.66
2023-03-02T05:24:15.072Z,99797.84
2023-03-02T05:26:44.356Z,99795.50
2023-03-02T05:29:12.342Z,99793.00
2023-03-02T05:31:50.015Z,99796.47
2023-03-02T05:34:20.060Z,99794.91
2023-03-02T05:36:46.803Z,99796.88
2023-03-02T05:39:13.782Z,99792.19
2023-03-02T05:41:50.842Z,99790.94
2023-03-02T05:44:20.239Z,99800.59
2023-03-02T05:46:46.909Z,99797.84
2023-03-02T05:49:16.371Z,99798.81
2023-03-02T05:51:46.333Z,99798.63
2023-03-02T05:54:20.894Z,99807.19
2023-03-02T05:56:50.273Z,99807.59
2023-03-02T05:59:26.341Z,99813.66
2023-03-02T06:01:59.541Z,99814.88
2023-03-02T06:04:26.435Z,99818.03
2023-03-02T06:06:55.058Z,99817.50
2023-03-02T06:09:24.758Z,99821.31
2023-03-02T06:11:54.181Z,99822.16
2023-03-02T06:14:24.194Z,99822.91
2023-03-02T06:16:51.251Z,99825.50
2023-03-02T06:19:21.901Z,99829.34
2023-03-02T06:21:52.431Z,99822.28
2023-03-02T06:24:19.444Z,99834.63
2023-03-02T06:26:49.629Z,99831.09
2023-03-02T06:29:19.084Z,99830.44
2023-03-02T06:31:48.349Z,99837.59
2023-03-02T06:34:16.049Z,99833.06
2023-03-02T06:36:47.762Z,99832.00
2023-03-02T06:39:19.824Z,99840.81
2023-03-02T06:41:46.953Z,99845.69
2023-03-02T06:44:14.279Z,99847.63
2023-03-02T06:46:42.200Z,99852.97
2023-03-02T06:49:13.922Z,99851.22
2023-03-02T06:51:40.894Z,99853.59
2023-03-02T06:54:08.323Z,99845.00
2023-03-02T06:56:35.396Z,99843.25
2023-03-02T06:59:02.176Z,99842.38
2023-03-02T07:01:36.384Z,99849.03
2023-03-02T07:04:03.848Z,99850.72
2023-03-02T07:06:33.073Z,99839.69
2023-03-02T07:09:02.791Z,99843.88
2023-03-02T07:11:29.426Z,99854.13
2023-03-02T07:13:55.999Z,99845.91
2023-03-02T07:16:22.658Z,99858.16
2023-03-02T07:18:52.366Z,99862.47
2023-03-02T07:21:18.995Z,99865.97
2023-03-02T07:23:46.913Z,99862.16
2023-03-02T07:26:15.919Z,99862.50
2023-03-02T07:28:44.462Z,99860.50
2023-03-02T07:31:11.914Z,99857.84
2023-03-02T07:33:39.472Z,99863.63
2023-03-02T07:36:14.674Z,99860.78
2023-03-02T07:38:41.460Z,99859.31
2023-03-02T07:41:14.464Z,99853.81
2023-03-02T07:43:43.885Z,99858.28
2023-03-02T07:49:02.998Z,99862.78
2023-03-02T07:51:35.405Z,99852.91
2023-03-02T07:54:04.792Z,99857.97
2023-03-02T07:56:33.727Z,99845.81
2023-03-02T07:59:02.622Z,99855.00
2023-03-02T08:01:32.122Z,99846.03
2023-03-02T08:03:58.931Z,99848.16
2023-03-02T08:06:27.965Z,99842.00
2023-03-02T08:08:54.976Z,99858.13
2023-03-02T08:11:27.665Z,99850.34
2023-03-02T08:14:01.722Z,99849.09
2023-03-02T08:16:28.683Z,99847.28
2023-03-02T08:18:57.977Z,99853.09
2023-03-02T08:21:26.933Z,99842.94
2023-03-02T08:23:53.582Z,99844.13
2023-03-02T08:26:20.748Z,99831.84
2023-03-02T08:28:54.071Z,99834.81
2023-03-02T08:31:24.095Z,99836.34
2023-03-02T08:33:50.885Z,99834.66
2023-03-02T08:36:18.879Z,99828.28
2023-03-02T08:38:49.279Z,99820.06
2023-03-02T08:41:19.543Z,99823.09
2023-03-02T08:43:46.886Z,99825.06
2023-03-02T08:46:15.128Z,99824.84
2023-03-02T08:48:44.010Z,99820.81
2023-03-02T08:51:16.949Z,99823.44
2023-03-02T08:53:45.550Z,99825.28
2023-03-02T08:56:20.049Z,99821.81
2023-03-02T08:58:50.970Z,99825.94
2023-03-02T09:01:27.384Z,99814.31
2023-03-02T09:03:56.840Z,99814.88
2023-03-02T09:06:28.774Z,99806.41
2023-03-02T09:08:59.142Z,99811.91
2023-03-02T09:11:26.603Z,99806.34
2023-03-02T09:13:54.633Z,99808.81
2023-03-02T09:16:26.655Z,99801.28
2023-03-02T09:18:56.674Z,99802.69
2023-03-02T09:21:23.965Z,99804.31
2023-03-02T09:24:02.604Z,99803.22
2023-03-02T09:26:30.370Z,99806.81
2023-03-02T09:28:57.180Z,99803.66
2023-03-02T09:31:24.212Z,99801.59
2023-03-02T09:33:50.921Z,99801.09
2023-03-02T09:36:24.409Z,99801.34
2023-03-02T09:38:51.443Z,99802.66
2023-03-02T09:41:21.047Z,99804.31
2023-03-02T09:44:05.092Z,99811.81
2023-03-02T09:46:53.641Z,99799.28
2023-03-02T09:49:51.548Z,99797.78
2023-03-02T09:52:30.521Z,99786.22
2023-03-02T09:55:01.182Z,99783.16
2023-03-02T09:57:34.794Z,99786.03
2023-03-02T10:00:19.573Z,99779.13
2023-03-02T10:02:54.520Z,99774.69
2023-03-02T10:05:36.434Z,99780.69
2023-03-02T10:08:03.098Z,99779.94
2023-03-02T10:10:44.457Z,99775.59
2023-03-02T10:13:15.766Z,99779.53
2023-03-02T10:16:14.983Z,99774.44
2023-03-02T10:19:06.803Z,99775.72
2023-03-02T10:21:40.893Z,99775.41
2023-03-02T10:24:32.944Z,99769.31
2023-03-02T10:27:17.718Z,99768.69
2023-03-02T10:30:06.512Z,99766.06
2023-03-02T10:32:44.108Z,99762.78
2023-03-02T10:35:15.117Z,99764.25
2023-03-02T10:37:43.988Z,99769.59
2023-03-02T10:40:26.584Z,99757.88
2023-03-02T10:43:03.916Z,99749.00
2023-03-02T10:45:35.052Z,99743.63
2023-03-02T10:48:06.433Z,99746.75
2023-03-02T10:50:33.473Z,99745.66
2023-03-02T10:53:10.103Z,99740.69
2023-03-02T10:55:45.148Z,99740.00
2023-03-02T10:58:35.898Z,99733.19
2023-03-02T11:01:07.293Z,99735.97
2023-03-02T11:03:34.096Z,99739.41
2023-03-02T11:06:18.824Z,99734.59
2023-03-02T11:08:57.440Z,99738.47
2023-03-02T11:11:27.091Z,99735.59
2023-03-02T11:13:56.408Z,99728.53
2023-03-02T11:16:31.202Z,99722.47
2023-03-02T11:19:18.839Z,99729.78
2023-03-02T11:22:05.498Z,99719.63
2023-03-02T11:24:51.136Z,99723.41
2023-03-02T11:27:39.019Z,99716.25
2023-03-02T11:30:27.083Z,99712.56
2023-03-02T11:33:17.181Z,99709.06
2023-03-02T11:35:55.846Z,99704.69
2023-03-02T11:38:41.694Z,99706.69
2023-03-02T11:41:33.072Z,99708.13
2023-03-02T11:44:10.922Z,99697.47
2023-03-02T11:46:42.006Z,99695.78
2023-03-02T11:49:16.644Z,99696.44
2023-03-02T11:51:58.488Z,99686.06
2023-03-02T11:54:44.101Z,99689.88
2023-03-02T11:57:24.052Z,99678.44
2023-03-02T11:59:53.877Z,99682.22
2023-03-02T12:02:23.426Z,99683.44
2023-03-02T12:05:01.160Z,99679.84
2023-03-02T12:07:28.069Z,99667.47
2023-03-02T12:10:26.186Z,99659.19
2023-03-02T12:13:26.434Z,99653.66
2023-03-02T12:15:58.855Z,99651.63
2023-03-02T12:18:27.771Z,99655.81
2023-03-02T12:21:06.756Z,99652.66
2023-03-02T12:23:47.504Z,99648.97
2023-03-02T12:26:23.068Z,99638.66
2023-03-02T12:29:05.043Z,99642.03
2023-03-02T12:31:50.306Z,99637.97
2023-03-02T12:34:35.897Z,99634.00
2023-03-02T12:37:17.949Z,99630.38
2023-03-02T12:40:16.883Z,99622.31
2023-03-02T12:43:22.469Z,99616.72
2023-03-02T12:46:23.025Z,99618.69
2023-03-02T12:49:25.029Z,99606.06
2023-03-02T12:52:02.741Z,99604.78
2023-03-02T12:54:36.857Z,99596.63
2023-03-02T12:57:16.964Z,99605.84
2023-03-02T12:59:50.803Z,99606.53
2023-03-02T13:02:20.430Z,99591.63
2023-03-02T13:04:58.142Z,99588.94
2023-03-02T13:07:50.055Z,99592.66
2023-03-02T13:10:31.093Z,99593.75
2023-03-02T13:12:59.589Z,99597.84
2023-03-02T13:15:27.603Z,99588.75
2023-03-02T13:18:00.475Z,99587.94
2023-03-02T13:20:31.210Z,99577.16
2023-03-02T13:23:03.171Z,99576.16
2023-03-02T13:25:31.258Z,99575.34
2023-03-02T13:28:10.086Z,99568.69
2023-03-02T13:30:47.822Z,99561.41
2023-03-02T13:33:21.434Z,99561.75
2023-03-02T13:35:55.570Z,99562.56
2023-03-02T13:38:24.151Z,99555.00
2023-03-02T13:40:53.261Z,99553.88
2023-03-02T13:43:26.298Z,99558.44
2023-03-02T13:45:59.855Z,99554.94
2023-03-02T13:48:29.695Z,99545.81
2023-03-02T13:51:03.497Z,99552.75
2023-03-02T13:53:34.302Z,99550.22
2023-03-02T13:56:04.835Z,99546.94
2023-03-02T13:58:46.098Z,99539.69
2023-03-02T14:01:15.987Z,99542.97
2023-03-02T14:03:45.619Z,99539.81
2023-03-02T14:06:18.479Z,99540.16
2023-03-02T14:08:46.716Z,99537.13
2023-03-02T14:11:17.292Z,99530.94
2023-03-02T14:13:47.741Z,99533.16
2023-03-02T14:16:17.493Z,99523.00
2023-03-02T14:18:57.453Z,99529.19
2023-03-02T14:21:37.508Z,99524.84
2023-03-02T14:24:07.865Z,99519.50
2023-03-02T14:26:37.505Z,99521.94
2023-03-02T14:29:10.625Z,99525.19
2023-03-02T14:31:40.288Z,99523.34
2023-03-02T14:34:12.099Z,99520.66
2023-03-02T14:36:39.942Z,99520.19
2023-03-02T14:39:20.092Z,99512.47
2023-03-02T14:41:54.843Z,99508.25
2023-03-02T14:44:26.065Z,99510.38
2023-03-02T14:46:53.129Z,99509.16
2023-03-02T14:49:22.624Z,99502.53
2023-03-02T14:52:06.683Z,99504.44
2023-03-02T14:54:45.102Z,99500.34
2023-03-02T14:57:27.760Z,99501.84
2023-03-02T14:59:56.183Z,99499.41
2023-03-02T15:02:27.153Z,99499.66
2023-03-02T15:04:57.130Z,99493.09
2023-03-02T15:07:27.812Z,99490.88
2023-03-02T15:09:56.240Z,99484.44
2023-03-02T15:12:32.137Z,99486.88
2023-03-02T15:14:59.382Z,99486.78
2023-03-02T15:17:26.114Z,99494.13
2023-03-02T15:19:55.267Z,99490.72
2023-03-02T15:22:22.313Z,99482.00
2023-03-02T15:24:49.262Z,99488.53
2023-03-02T15:27:15.960Z,99482.34
2023-03-02T15:29:48.108Z,99487.59
2023-03-02T15:32:15.112Z,99493.53
2023-03-02T15:34:44.008Z,99492.34
2023-03-02T15:37:11.853Z,99490.09
2023-03-02T15:39:40.717Z,99493.84
2023-03-02T15:42:07.810Z,99494.09
2023-03-02T15:44:34.485Z,99491.41
2023-03-02T15:47:01.331Z,99492.69
2023-03-02T15:49:32.070Z,99490.88
2023-03-02T15:51:59.095Z,99487.16
2023-03-02T15:54:26.931Z,99491.19
2023-03-02T15:56:54.949Z,99490.53
2023-03-02T15:59:23.962Z,99485.63
2023-03-02T16:01:52.242Z,99485.41
2023-03-02T16:04:22.108Z,99483.50
2023-03-02T16:06:50.648Z,99487.81
2023-03-02T16:09:31.128Z,99487.63
2023-03-02T16:11:59.481Z,99492.00
2023-03-02T16:14:29.122Z,99490.63
2023-03-02T16:16:55.940Z,99486.78
2023-03-02T16:19:28.247Z,99491.69
2023-03-02T16:21:57.547Z,99493.75
2023-03-02T16:24:24.763Z,99490.97
2023-03-02T16:26:54.882Z,99485.56
2023-03-02T16:29:25.082Z,99496.00
2023-03-02T16:31:53.706Z,99493.47
2023-03-02T16:34:23.008Z,99494.44
2023-03-02T16:36:51.685Z,99496.19
2023-03-02T16:39:26.705Z,99495.03
2023-03-02T16:41:53.832Z,99505.78
2023-03-02T16:44:23.139Z,99505.47
2023-03-02T16:46:57.831Z,99505.09
2023-03-02T16:49:33.687Z,99504.56
2023-03-02T16:52:01.527Z,99501.88
2023-03-02T16:54:28.187Z,99506.25
2023-03-02T16:56:54.912Z,99510.56
2023-03-02T16:59:24.491Z,99506.03
2023-03-02T17:01:51.326Z,99512.41
2023-03-02T17:04:18.729Z,99515.28
2023-03-02T17:06:59.903Z,99514.66
2023-03-02T17:09:28.104Z,99520.59
2023-03-02T17:11:54.847Z,99519.75
2023-03-02T17:14:21.599Z,99522.22
2023-03-02T17:16:51.701Z,99516.00
2023-03-02T17:19:18.386Z,99533.56
2023-03-02T17:21:47.927Z,99518.50
2023-03-02T17:24:16.762Z,99526.66
2023-03-02T17:26:44.006Z,99527.19
2023-03-02T17:29:10.926Z,99521.22
2023-03-02T17:31:38.136Z,99527.72
2023-03-02T17:36:55.118Z,99526.56
2023-03-02T17:39:23.058Z,99520.94
2023-03-02T17:41:51.276Z,99518.63
2023-03-02T17:44:19.408Z,99517.94
2023-03-02T17:46:46.316Z,99520.19
2023-03-02T17:49:14.513Z,99524.91
2023-03-02T17:51:41.168Z,99530.59
2023-03-02T17:54:14.958Z,99527.25
2023-03-02T17:56:41.768Z,99524.88
2023-03-02T17:59:08.430Z,99523.81
2023-03-02T18:01:40.673Z,99522.53
2023-03-02T18:04:09.344Z,99522.94
2023-03-02T18:06:39.084Z,99520.97
2023-03-02T18:09:08.617Z,99523.09
2023-03-02T18:11:35.464Z,99532.47
2023-03-02T18:14:04.149Z,99522.13
2023-03-02T18:16:31.015Z,99528.19
2023-03-02T18:18:57.799Z,99526.91
2023-03-02T18:21:24.458Z,99517.84
2023-03-02T18:23:55.096Z,99528.41
2023-03-02T18:26:23.161Z,99523.63
2023-03-02T18:28:51.123Z,99527.94
2023-03-02T18:31:19.621Z,99525.56
2023-03-02T18:33:47.241Z,99525.66
2023-03-02T18:36:16.260Z,99512.09
2023-03-02T18:38:43.121Z,99523.34
2023-03-02T18:41:12.885Z,99530.22
2023-03-02T18:43:41.048Z,99528.00
2023-03-02T18:46:10.495Z,99533.19
2023-03-02T18:48:44.814Z,99528.31
2023-03-02T18:51:11.519Z,99529.97
2023-03-02T18:53:39.460Z,99532.59
2023-03-02T18:56:09.335Z,99529.59
2023-03-02T18:58:36.277Z,99541.56
2023-03-02T19:03:49.484Z,99541.25
2023-03-02T19:06:20.537Z,99545.63
2023-03-02T19:08:48.221Z,99540.41
2023-03-02T19:11:17.998Z,99533.28
2023-03-02T19:13:50.060Z,99542.59
2023-03-02T19:16:19.293Z,99536.53
2023-03-02T19:18:51.133Z,99542.56
2023-03-02T19:21:20.357Z,99538.75
2023-03-02T19:23:49.086Z,99547.16
2023-03-02T19:26:21.942Z,99546.84
2023-03-02T19:28:49.131Z,99553.59
2023-03-02T19:31:16.017Z,99542.72
2023-03-02T19:33:45.255Z,99538.97
2023-03-02T19:36:20.037Z,99544.88
2023-03-02T19:38:50.780Z,99543.22
2023-03-02T19:41:21.134Z,99543.44
2023-03-02T19:43:48.357Z,99539.81
2023-03-02T19:46:16.109Z,99538.00
2023-03-02T19:48:43.452Z,99539.69
2023-03-02T19:51:13.675Z,99542.50
2023-03-02T19:53:41.172Z,99536.72
2023-03-02T19:56:13.162Z,99535.91
2023-03-02T19:58:50.031Z,99539.53
2023-03-02T20:01:27.141Z,99543.31
2023-03-02T20:03:55.885Z,99541.03
2023-03-02T20:06:27.139Z,99538.22
2023-03-02T20:08:56.754Z,99532.47
2023-03-02T20:11:25.157Z,99534.28
2023-03-02T20:13:52.777Z,99541.75
2023-03-02T20:16:22.901Z,99527.84
2023-03-02T20:18:53.191Z,99536.28
2023-03-02T20:21:19.931Z,99536.47
2023-03-02T20:23:49.977Z,99534.16
2023-03-02T20:26:21.309Z,99535.81
2023-03-02T20:28:50.810Z,99536.34
2023-03-02T20:31:17.810Z,99538.28
2023-03-02T20:33:52.850Z,99528.22
2023-03-02T20:36:30.344Z,99534.69
2023-03-02T20:39:14.088Z,99540.78
2023-03-02T20:41:41.192Z,99538.16
2023-03-02T20:44:14.474Z,99531.22
2023-03-02T20:46:46.129Z,99530.25
2023-03-02T20:49:15.423Z,99522.78
2023-03-02T20:51:49.291Z,99525.59
2023-03-02T20:54:18.133Z,99520.00
2023-03-02T20:56:47.071Z,99523.63
2023-03-02T20:59:14.291Z,99525.25
2023-03-02T21:01:49.996Z,99529.91
2023-03-02T21:04:23.375Z,99522.63
2023-03-02T21:06:53.077Z,99527.25
2023-03-02T21:09:23.066Z,99519.50
2023-03-02T21:11:50.728Z,99525.47
2023-03-02T21:14:17.535Z,99526.97
2023-03-02T21:16:46.457Z,99524.63
2023-03-02T21:19:16.497Z,99521.84
2023-03-02T21:21:46.248Z,99519.00
2023-03-02T21:24:21.190Z,99518.84
2023-03-02T21:26:53.070Z,99515.41
2023-03-02T21:29:21.439Z,99518.72
2023-03-02T21:31:50.132Z,99514.56
2023-03-02T21:34:24.887Z,99522.19
2023-03-02T21:36:53.748Z,99513.44
2023-03-02T21:39:25.885Z,99507.66
2023-03-02T21:41:54.503Z,99506.50
2023-03-02T21:44:21.585Z,99513.78
2023-03-02T21:46:48.431Z,99513.16
2023-03-02T21:49:17.701Z,99505.38
2023-03-02T21:51:53.344Z,99501.75
2023-03-02T21:54:20.208Z,99507.88
2023-03-02T21:56:49.508Z,99502.75
2023-03-02T21:59:16.231Z,99505.72
2023-03-02T22:01:53.240Z,99500.09
2023-03-02T22:04:21.523Z,99508.38
2023-03-02T22:06:50.709Z,99501.09
2023-03-02T22:09:17.737Z,99500.09
2023-03-02T22:11:44.861Z,99495.66
2023-03-02T22:14:15.694Z,99494.16
2023-03-02T22:16:47.899Z,99495.84
2023-03-02T22:19:26.986Z,99486.59
2023-03-02T22:21:58.654Z,99495.84
2023-03-02T22:24:30.358Z,99495.00
2023-03-02T22:27:08.112Z,99494.03
2023-03-02T22:29:54.259Z,99497.16
2023-03-02T22:32:35.642Z,99496.00
2023-03-02T22:35:13.113Z,99497.97
2023-03-02T22:37:40.481Z,99504.25
2023-03-02T22:40:19.151Z,99496.47
2023-03-02T22:42:45.867Z,99509.19
2023-03-02T22:45:18.972Z,99504.41
2023-03-02T22:47:51.317Z,99498.63
2023-03-02T22:50:30.057Z,99503.72
2023-03-02T22:53:00.601Z,99502.06
2023-03-02T22:55:37.739Z,99508.16
2023-03-02T22:58:36.625Z,99502.03
2023-03-02T23:01:30.538Z,99497.91
2023-03-02T23:04:09.769Z,99504.53
2023-03-02T23:06:45.332Z,99500.22
2023-03-02T23:09:20.541Z,99500.22
2023-03-02T23:11:48.164Z,99502.19
2023-03-02T23:14:27.432Z,99494.94
2023-03-02T23:17:01.849Z,99497.41
2023-03-02T23:19:31.941Z,99493.59
2023-03-02T23:22:03.708Z,99494.28
2023-03-02T23:24:30.738Z,99498.72
2023-03-02T23:27:17.568Z,99501.63
2023-03-02T23:29:48.357Z,99493.72
2023-03-02T23:32:16.663Z,99492.25
2023-03-02T23:34:45.525Z,99489.81
2023-03-02T23:37:14.556Z,99490.47
2023-03-02T23:39:46.228Z,99492.75
2023-03-02T23:42:19.589Z,99488.63
2023-03-02T23:44:50.816Z,99497.81
2023-03-02T23:47:19.821Z,99487.31
2023-03-02T23:49:49.456Z,99494.69
2023-03-02T23:52:21.005Z,99498.34
2023-03-02T23:54:53.920Z,99491.75
2023-03-02T23:57:21.631Z,99494.38
2023-03-02T23:59:55.549Z,99491.25
